Viola, Kentucky
Current Conditions -  °F | °C
As of 10:15 AM on Thursday 27 Nov 2014 (Local Time) from KM25 Reporting Station
Overcast Overcast  
Wind Chill: 29°   Ceiling: 2100
Heat Index: 34°   Visibility: 10mi
Dew Point: 27°   Wind: 6mph
Humidity: 75%   Direction: 350°N
Pressure: 30.49"   Gusts: NA
Location:  36.8496°N, 88.6894°W
Report Text: KM25 271615Z AUTO 35005KT 10SM OVC021 01/M03 A3049 RMK AO2
Loading
Personal Weather Stations






























Interactive Weather Map New forecast layout! Learn more

10-Day Weather Forecast

Advertisements
Track Severe Weather on mobile